sensor_id;sensor_type;location;lat;lon;timestamp;P1;durP1;ratioP1;P2;durP2;ratioP2
37201;SDS011;37799;52.390;6.136;2023-02-28T00:00:03;2.58;;;0.40;;
37201;SDS011;37799;52.390;6.136;2023-02-28T00:02:38;2.38;;;0.63;;
37201;SDS011;37799;52.390;6.136;2023-02-28T00:05:06;2.28;;;0.50;;
37201;SDS011;37799;52.390;6.136;2023-02-28T00:07:32;5.15;;;0.65;;
37201;SDS011;37799;52.390;6.136;2023-02-28T00:09:58;0.77;;;0.40;;
37201;SDS011;37799;52.390;6.136;2023-02-28T00:12:24;1.63;;;0.35;;
37201;SDS011;37799;52.390;6.136;2023-02-28T00:14:50;5.22;;;0.60;;
37201;SDS011;37799;52.390;6.136;2023-02-28T00:17:16;5.45;;;0.90;;
37201;SDS011;37799;52.390;6.136;2023-02-28T00:19:45;1.65;;;0.40;;
37201;SDS011;37799;52.390;6.136;2023-02-28T00:22:15;1.55;;;0.28;;
37201;SDS011;37799;52.390;6.136;2023-02-28T00:24:41;1.70;;;0.38;;
37201;SDS011;37799;52.390;6.136;2023-02-28T00:27:06;1.30;;;0.20;;
37201;SDS011;37799;52.390;6.136;2023-02-28T00:29:32;1.73;;;0.30;;
37201;SDS011;37799;52.390;6.136;2023-02-28T00:31:57;2.78;;;0.60;;
37201;SDS011;37799;52.390;6.136;2023-02-28T00:34:22;2.33;;;0.30;;
37201;SDS011;37799;52.390;6.136;2023-02-28T00:36:48;2.22;;;0.30;;
37201;SDS011;37799;52.390;6.136;2023-02-28T00:39:16;1.35;;;0.30;;
37201;SDS011;37799;52.390;6.136;2023-02-28T00:41:41;1.95;;;0.40;;
37201;SDS011;37799;52.390;6.136;2023-02-28T00:44:07;6.25;;;0.50;;
37201;SDS011;37799;52.390;6.136;2023-02-28T00:46:32;0.95;;;0.30;;
37201;SDS011;37799;52.390;6.136;2023-02-28T00:48:57;4.65;;;0.40;;
37201;SDS011;37799;52.390;6.136;2023-02-28T00:51:23;2.10;;;0.38;;
37201;SDS011;37799;52.390;6.136;2023-02-28T00:53:48;4.32;;;0.50;;
37201;SDS011;37799;52.390;6.136;2023-02-28T00:56:13;3.00;;;0.60;;
37201;SDS011;37799;52.390;6.136;2023-02-28T00:58:39;1.83;;;0.40;;
37201;SDS011;37799;52.390;6.136;2023-02-28T01:01:04;4.38;;;0.60;;
37201;SDS011;37799;52.390;6.136;2023-02-28T01:03:30;6.32;;;0.40;;
37201;SDS011;37799;52.390;6.136;2023-02-28T01:05:55;1.02;;;0.22;;
37201;SDS011;37799;52.390;6.136;2023-02-28T01:08:21;3.20;;;0.38;;
37201;SDS011;37799;52.390;6.136;2023-02-28T01:10:46;1.17;;;0.28;;
37201;SDS011;37799;52.390;6.136;2023-02-28T01:13:12;2.60;;;0.88;;
37201;SDS011;37799;52.390;6.136;2023-02-28T01:15:39;2.38;;;0.40;;
37201;SDS011;37799;52.390;6.136;2023-02-28T01:18:08;1.98;;;0.40;;
37201;SDS011;37799;52.390;6.136;2023-02-28T01:20:35;4.00;;;0.55;;
37201;SDS011;37799;52.390;6.136;2023-02-28T01:23:02;2.03;;;0.30;;
37201;SDS011;37799;52.390;6.136;2023-02-28T01:25:27;1.65;;;0.25;;
37201;SDS011;37799;52.390;6.136;2023-02-28T01:27:52;2.80;;;0.38;;
37201;SDS011;37799;52.390;6.136;2023-02-28T01:30:17;3.13;;;0.60;;
37201;SDS011;37799;52.390;6.136;2023-02-28T01:32:43;3.15;;;0.60;;
37201;SDS011;37799;52.390;6.136;2023-02-28T01:35:08;1.48;;;0.50;;
37201;SDS011;37799;52.390;6.136;2023-02-28T01:37:33;1.48;;;0.30;;
37201;SDS011;37799;52.390;6.136;2023-02-28T01:39:59;1.52;;;0.38;;
37201;SDS011;37799;52.390;6.136;2023-02-28T01:42:24;4.13;;;0.60;;
37201;SDS011;37799;52.390;6.136;2023-02-28T01:47:21;4.30;;;0.43;;
37201;SDS011;37799;52.390;6.136;2023-02-28T01:49:47;1.85;;;0.40;;
37201;SDS011;37799;52.390;6.136;2023-02-28T01:52:13;2.47;;;0.60;;
37201;SDS011;37799;52.390;6.136;2023-02-28T01:54:43;1.52;;;0.30;;
37201;SDS011;37799;52.390;6.136;2023-02-28T01:57:13;1.95;;;0.50;;
37201;SDS011;37799;52.390;6.136;2023-02-28T02:00:15;1.38;;;0.28;;
37201;SDS011;37799;52.390;6.136;2023-02-28T02:02:34;2.80;;;0.50;;
37201;SDS011;37799;52.390;6.136;2023-02-28T02:05:06;1.17;;;0.20;;
37201;SDS011;37799;52.390;6.136;2023-02-28T02:07:35;1.73;;;0.38;;
37201;SDS011;37799;52.390;6.136;2023-02-28T02:10:05;4.07;;;0.40;;
37201;SDS011;37799;52.390;6.136;2023-02-28T02:15:07;3.72;;;0.47;;
37201;SDS011;37799;52.390;6.136;2023-02-28T02:17:43;2.92;;;0.75;;
37201;SDS011;37799;52.390;6.136;2023-02-28T02:25:57;2.92;;;0.40;;
37201;SDS011;37799;52.390;6.136;2023-02-28T02:36:32;2.88;;;0.50;;
37201;SDS011;37799;52.390;6.136;2023-02-28T02:39:14;1.77;;;0.22;;
37201;SDS011;37799;52.390;6.136;2023-02-28T02:41:55;3.35;;;0.77;;
37201;SDS011;37799;52.390;6.136;2023-02-28T02:47:06;1.92;;;0.38;;
37201;SDS011;37799;52.390;6.136;2023-02-28T02:49:35;2.95;;;0.50;;
37201;SDS011;37799;52.390;6.136;2023-02-28T02:52:04;2.63;;;0.32;;
37201;SDS011;37799;52.390;6.136;2023-02-28T02:54:40;3.15;;;0.63;;
37201;SDS011;37799;52.390;6.136;2023-02-28T02:57:13;2.00;;;0.20;;
37201;SDS011;37799;52.390;6.136;2023-02-28T02:59:46;2.38;;;0.40;;
37201;SDS011;37799;52.390;6.136;2023-02-28T03:02:14;1.75;;;0.40;;
37201;SDS011;37799;52.390;6.136;2023-02-28T03:04:46;2.70;;;0.57;;
37201;SDS011;37799;52.390;6.136;2023-02-28T03:07:16;3.10;;;0.45;;
37201;SDS011;37799;52.390;6.136;2023-02-28T03:09:49;2.75;;;0.68;;
37201;SDS011;37799;52.390;6.136;2023-02-28T03:12:19;2.95;;;0.60;;
37201;SDS011;37799;52.390;6.136;2023-02-28T03:17:30;2.92;;;0.60;;
37201;SDS011;37799;52.390;6.136;2023-02-28T03:22:43;3.10;;;0.63;;
37201;SDS011;37799;52.390;6.136;2023-02-28T03:28:02;2.75;;;0.43;;
37201;SDS011;37799;52.390;6.136;2023-02-28T03:35:43;5.20;;;0.50;;
37201;SDS011;37799;52.390;6.136;2023-02-28T03:38:18;4.40;;;0.85;;
37201;SDS011;37799;52.390;6.136;2023-02-28T03:40:48;2.47;;;0.35;;
37201;SDS011;37799;52.390;6.136;2023-02-28T03:43:19;3.58;;;0.80;;
37201;SDS011;37799;52.390;6.136;2023-02-28T03:45:50;4.13;;;0.82;;
37201;SDS011;37799;52.390;6.136;2023-02-28T03:48:19;4.30;;;0.80;;
37201;SDS011;37799;52.390;6.136;2023-02-28T03:50:49;4.00;;;0.90;;
37201;SDS011;37799;52.390;6.136;2023-02-28T03:53:21;2.15;;;0.65;;
37201;SDS011;37799;52.390;6.136;2023-02-28T03:55:49;2.35;;;0.50;;
37201;SDS011;37799;52.390;6.136;2023-02-28T03:58:27;1.55;;;0.40;;
37201;SDS011;37799;52.390;6.136;2023-02-28T04:01:12;5.00;;;1.00;;
37201;SDS011;37799;52.390;6.136;2023-02-28T04:03:45;1.98;;;0.60;;
37201;SDS011;37799;52.390;6.136;2023-02-28T04:06:17;3.88;;;0.50;;
37201;SDS011;37799;52.390;6.136;2023-02-28T04:08:45;3.13;;;0.60;;
37201;SDS011;37799;52.390;6.136;2023-02-28T04:11:23;2.97;;;0.65;;
37201;SDS011;37799;52.390;6.136;2023-02-28T04:13:57;2.60;;;0.73;;
37201;SDS011;37799;52.390;6.136;2023-02-28T04:16:22;2.88;;;0.50;;
37201;SDS011;37799;52.390;6.136;2023-02-28T04:18:48;3.92;;;0.60;;
37201;SDS011;37799;52.390;6.136;2023-02-28T04:21:13;3.05;;;0.63;;
37201;SDS011;37799;52.390;6.136;2023-02-28T04:23:38;6.60;;;0.85;;
37201;SDS011;37799;52.390;6.136;2023-02-28T04:26:04;4.40;;;0.75;;
37201;SDS011;37799;52.390;6.136;2023-02-28T04:28:31;4.93;;;0.68;;
37201;SDS011;37799;52.390;6.136;2023-02-28T04:31:00;1.95;;;0.47;;
37201;SDS011;37799;52.390;6.136;2023-02-28T04:33:29;1.83;;;0.32;;
37201;SDS011;37799;52.390;6.136;2023-02-28T04:38:24;4.00;;;0.77;;
37201;SDS011;37799;52.390;6.136;2023-02-28T04:40:50;4.65;;;0.68;;
37201;SDS011;37799;52.390;6.136;2023-02-28T04:43:15;2.45;;;0.60;;
37201;SDS011;37799;52.390;6.136;2023-02-28T04:45:40;5.53;;;0.73;;
37201;SDS011;37799;52.390;6.136;2023-02-28T04:48:05;1.35;;;0.35;;
37201;SDS011;37799;52.390;6.136;2023-02-28T04:50:31;3.15;;;0.50;;
37201;SDS011;37799;52.390;6.136;2023-02-28T04:52:56;2.78;;;0.45;;
37201;SDS011;37799;52.390;6.136;2023-02-28T04:55:21;1.42;;;0.40;;
37201;SDS011;37799;52.390;6.136;2023-02-28T04:57:47;3.35;;;0.65;;
37201;SDS011;37799;52.390;6.136;2023-02-28T05:00:12;3.58;;;0.75;;
37201;SDS011;37799;52.390;6.136;2023-02-28T05:02:40;4.53;;;0.73;;
37201;SDS011;37799;52.390;6.136;2023-02-28T05:05:05;3.10;;;0.50;;
37201;SDS011;37799;52.390;6.136;2023-02-28T05:07:31;3.42;;;0.70;;
37201;SDS011;37799;52.390;6.136;2023-02-28T05:09:56;2.05;;;0.40;;
37201;SDS011;37799;52.390;6.136;2023-02-28T05:12:21;1.58;;;0.40;;
37201;SDS011;37799;52.390;6.136;2023-02-28T05:14:47;2.42;;;0.43;;
37201;SDS011;37799;52.390;6.136;2023-02-28T05:17:12;2.03;;;0.43;;
37201;SDS011;37799;52.390;6.136;2023-02-28T05:19:37;1.38;;;0.40;;
37201;SDS011;37799;52.390;6.136;2023-02-28T05:22:02;2.15;;;0.60;;
37201;SDS011;37799;52.390;6.136;2023-02-28T05:24:28;2.95;;;0.52;;
37201;SDS011;37799;52.390;6.136;2023-02-28T05:26:53;1.50;;;0.30;;
37201;SDS011;37799;52.390;6.136;2023-02-28T05:29:19;2.05;;;0.32;;
37201;SDS011;37799;52.390;6.136;2023-02-28T05:31:44;1.58;;;0.40;;
37201;SDS011;37799;52.390;6.136;2023-02-28T05:34:10;2.80;;;0.55;;
37201;SDS011;37799;52.390;6.136;2023-02-28T05:36:37;3.58;;;0.70;;
37201;SDS011;37799;52.390;6.136;2023-02-28T05:39:04;2.45;;;0.40;;
37201;SDS011;37799;52.390;6.136;2023-02-28T05:41:30;2.60;;;0.40;;
37201;SDS011;37799;52.390;6.136;2023-02-28T05:43:56;2.08;;;0.38;;
37201;SDS011;37799;52.390;6.136;2023-02-28T05:46:22;3.05;;;0.68;;
37201;SDS011;37799;52.390;6.136;2023-02-28T05:48:47;1.73;;;0.30;;
37201;SDS011;37799;52.390;6.136;2023-02-28T05:51:13;2.97;;;0.40;;
37201;SDS011;37799;52.390;6.136;2023-02-28T05:53:38;2.03;;;0.45;;
37201;SDS011;37799;52.390;6.136;2023-02-28T05:56:04;2.03;;;0.40;;
37201;SDS011;37799;52.390;6.136;2023-02-28T05:58:30;1.48;;;0.38;;
37201;SDS011;37799;52.390;6.136;2023-02-28T06:00:59;2.00;;;0.40;;
37201;SDS011;37799;52.390;6.136;2023-02-28T06:03:25;3.10;;;0.60;;
37201;SDS011;37799;52.390;6.136;2023-02-28T06:05:51;2.60;;;0.43;;
37201;SDS011;37799;52.390;6.136;2023-02-28T06:08:17;1.90;;;0.65;;
37201;SDS011;37799;52.390;6.136;2023-02-28T06:10:43;3.88;;;0.60;;
37201;SDS011;37799;52.390;6.136;2023-02-28T06:13:08;2.20;;;0.30;;
37201;SDS011;37799;52.390;6.136;2023-02-28T06:15:34;3.90;;;0.40;;
37201;SDS011;37799;52.390;6.136;2023-02-28T06:17:59;1.67;;;0.35;;
37201;SDS011;37799;52.390;6.136;2023-02-28T06:20:25;1.98;;;0.43;;
37201;SDS011;37799;52.390;6.136;2023-02-28T06:22:54;3.53;;;0.80;;
37201;SDS011;37799;52.390;6.136;2023-02-28T06:25:21;2.85;;;0.50;;
37201;SDS011;37799;52.390;6.136;2023-02-28T06:27:46;4.30;;;1.02;;
37201;SDS011;37799;52.390;6.136;2023-02-28T06:30:13;2.28;;;0.68;;
37201;SDS011;37799;52.390;6.136;2023-02-28T06:32:38;1.55;;;0.32;;
37201;SDS011;37799;52.390;6.136;2023-02-28T06:35:04;2.70;;;1.02;;
37201;SDS011;37799;52.390;6.136;2023-02-28T06:37:30;6.60;;;0.57;;
37201;SDS011;37799;52.390;6.136;2023-02-28T06:39:56;2.40;;;0.45;;
37201;SDS011;37799;52.390;6.136;2023-02-28T06:42:22;1.67;;;0.38;;
37201;SDS011;37799;52.390;6.136;2023-02-28T06:44:56;2.38;;;0.40;;
37201;SDS011;37799;52.390;6.136;2023-02-28T06:47:21;2.15;;;0.35;;
37201;SDS011;37799;52.390;6.136;2023-02-28T06:49:47;2.17;;;0.55;;
37201;SDS011;37799;52.390;6.136;2023-02-28T06:52:12;1.67;;;0.55;;
37201;SDS011;37799;52.390;6.136;2023-02-28T06:54:38;1.67;;;0.30;;
37201;SDS011;37799;52.390;6.136;2023-02-28T06:57:03;2.85;;;0.50;;
37201;SDS011;37799;52.390;6.136;2023-02-28T06:59:29;3.20;;;0.55;;
37201;SDS011;37799;52.390;6.136;2023-02-28T07:01:55;2.90;;;0.40;;
37201;SDS011;37799;52.390;6.136;2023-02-28T07:04:20;2.22;;;0.50;;
37201;SDS011;37799;52.390;6.136;2023-02-28T07:06:46;2.53;;;0.30;;
37201;SDS011;37799;52.390;6.136;2023-02-28T07:09:11;1.30;;;0.40;;
37201;SDS011;37799;52.390;6.136;2023-02-28T07:11:38;2.80;;;0.70;;
37201;SDS011;37799;52.390;6.136;2023-02-28T07:14:04;2.63;;;0.50;;
37201;SDS011;37799;52.390;6.136;2023-02-28T07:16:29;3.60;;;0.50;;
37201;SDS011;37799;52.390;6.136;2023-02-28T07:18:55;4.00;;;0.65;;
37201;SDS011;37799;52.390;6.136;2023-02-28T07:21:20;1.50;;;0.50;;
37201;SDS011;37799;52.390;6.136;2023-02-28T07:23:46;3.47;;;0.60;;
37201;SDS011;37799;52.390;6.136;2023-02-28T07:26:13;3.42;;;0.70;;
37201;SDS011;37799;52.390;6.136;2023-02-28T07:28:41;3.97;;;0.65;;
37201;SDS011;37799;52.390;6.136;2023-02-28T07:31:07;2.92;;;0.70;;
37201;SDS011;37799;52.390;6.136;2023-02-28T07:33:34;2.88;;;0.63;;
37201;SDS011;37799;52.390;6.136;2023-02-28T07:36:01;3.05;;;0.60;;
37201;SDS011;37799;52.390;6.136;2023-02-28T07:38:33;1.42;;;0.30;;
37201;SDS011;37799;52.390;6.136;2023-02-28T07:40:59;1.98;;;0.43;;
37201;SDS011;37799;52.390;6.136;2023-02-28T07:43:24;3.88;;;0.50;;
37201;SDS011;37799;52.390;6.136;2023-02-28T07:45:49;2.05;;;0.50;;
37201;SDS011;37799;52.390;6.136;2023-02-28T07:48:15;3.42;;;0.50;;
37201;SDS011;37799;52.390;6.136;2023-02-28T07:50:40;2.50;;;0.55;;
37201;SDS011;37799;52.390;6.136;2023-02-28T07:53:05;3.05;;;0.60;;
37201;SDS011;37799;52.390;6.136;2023-02-28T07:55:31;2.22;;;0.50;;
37201;SDS011;37799;52.390;6.136;2023-02-28T07:57:56;3.15;;;0.35;;
37201;SDS011;37799;52.390;6.136;2023-02-28T08:00:23;2.08;;;0.30;;
37201;SDS011;37799;52.390;6.136;2023-02-28T08:02:48;2.45;;;0.52;;
37201;SDS011;37799;52.390;6.136;2023-02-28T08:05:14;2.90;;;0.70;;
37201;SDS011;37799;52.390;6.136;2023-02-28T08:07:40;1.63;;;0.38;;
37201;SDS011;37799;52.390;6.136;2023-02-28T08:10:05;3.17;;;0.47;;
37201;SDS011;37799;52.390;6.136;2023-02-28T08:12:31;1.75;;;0.40;;
37201;SDS011;37799;52.390;6.136;2023-02-28T08:14:56;2.00;;;0.30;;
37201;SDS011;37799;52.390;6.136;2023-02-28T08:17:22;1.70;;;0.30;;
37201;SDS011;37799;52.390;6.136;2023-02-28T08:19:47;2.85;;;0.63;;
37201;SDS011;37799;52.390;6.136;2023-02-28T08:22:12;1.42;;;0.30;;
37201;SDS011;37799;52.390;6.136;2023-02-28T08:24:38;3.38;;;0.32;;
37201;SDS011;37799;52.390;6.136;2023-02-28T08:27:06;2.17;;;0.40;;
37201;SDS011;37799;52.390;6.136;2023-02-28T08:29:31;3.45;;;0.50;;
37201;SDS011;37799;52.390;6.136;2023-02-28T08:31:57;1.13;;;0.30;;
37201;SDS011;37799;52.390;6.136;2023-02-28T08:34:23;2.38;;;0.60;;
37201;SDS011;37799;52.390;6.136;2023-02-28T08:36:49;1.55;;;0.40;;
37201;SDS011;37799;52.390;6.136;2023-02-28T08:39:14;3.42;;;0.60;;
37201;SDS011;37799;52.390;6.136;2023-02-28T08:41:41;1.15;;;0.20;;
37201;SDS011;37799;52.390;6.136;2023-02-28T08:44:07;1.67;;;0.30;;
37201;SDS011;37799;52.390;6.136;2023-02-28T08:46:32;1.30;;;0.20;;
37201;SDS011;37799;52.390;6.136;2023-02-28T08:48:57;1.83;;;0.40;;
37201;SDS011;37799;52.390;6.136;2023-02-28T08:51:25;0.90;;;0.20;;
37201;SDS011;37799;52.390;6.136;2023-02-28T08:54:00;0.82;;;0.22;;
37201;SDS011;37799;52.390;6.136;2023-02-28T08:56:27;2.28;;;0.40;;
37201;SDS011;37799;52.390;6.136;2023-02-28T08:58:54;2.53;;;0.40;;
37201;SDS011;37799;52.390;6.136;2023-02-28T09:01:25;1.27;;;0.30;;
37201;SDS011;37799;52.390;6.136;2023-02-28T09:03:52;1.00;;;0.20;;
37201;SDS011;37799;52.390;6.136;2023-02-28T09:06:19;1.83;;;0.40;;
37201;SDS011;37799;52.390;6.136;2023-02-28T09:08:45;1.85;;;0.28;;
37201;SDS011;37799;52.390;6.136;2023-02-28T09:11:11;8.85;;;1.75;;
37201;SDS011;37799;52.390;6.136;2023-02-28T09:13:37;2.15;;;0.40;;
37201;SDS011;37799;52.390;6.136;2023-02-28T09:16:04;2.90;;;0.50;;
37201;SDS011;37799;52.390;6.136;2023-02-28T09:18:33;1.15;;;0.25;;
37201;SDS011;37799;52.390;6.136;2023-02-28T09:21:02;1.63;;;0.35;;
37201;SDS011;37799;52.390;6.136;2023-02-28T09:23:29;1.13;;;0.30;;
37201;SDS011;37799;52.390;6.136;2023-02-28T09:25:55;1.67;;;0.40;;
37201;SDS011;37799;52.390;6.136;2023-02-28T09:28:20;0.85;;;0.20;;
37201;SDS011;37799;52.390;6.136;2023-02-28T09:30:48;0.70;;;0.10;;
37201;SDS011;37799;52.390;6.136;2023-02-28T09:33:15;1.23;;;0.15;;
37201;SDS011;37799;52.390;6.136;2023-02-28T09:35:41;2.38;;;0.80;;
37201;SDS011;37799;52.390;6.136;2023-02-28T09:38:07;1.70;;;0.20;;
37201;SDS011;37799;52.390;6.136;2023-02-28T09:40:35;1.23;;;0.10;;
37201;SDS011;37799;52.390;6.136;2023-02-28T09:43:03;1.02;;;0.17;;
37201;SDS011;37799;52.390;6.136;2023-02-28T09:45:35;0.93;;;0.10;;
37201;SDS011;37799;52.390;6.136;2023-02-28T09:48:27;0.75;;;0.20;;
37201;SDS011;37799;52.390;6.136;2023-02-28T09:51:00;1.25;;;0.30;;
37201;SDS011;37799;52.390;6.136;2023-02-28T09:53:30;2.30;;;0.28;;
37201;SDS011;37799;52.390;6.136;2023-02-28T09:56:00;1.23;;;0.13;;
37201;SDS011;37799;52.390;6.136;2023-02-28T09:58:45;1.70;;;0.60;;
37201;SDS011;37799;52.390;6.136;2023-02-28T10:04:16;2.72;;;0.80;;
37201;SDS011;37799;52.390;6.136;2023-02-28T10:06:49;0.85;;;0.15;;
37201;SDS011;37799;52.390;6.136;2023-02-28T10:09:19;1.27;;;0.30;;
37201;SDS011;37799;52.390;6.136;2023-02-28T10:11:49;1.00;;;0.20;;
37201;SDS011;37799;52.390;6.136;2023-02-28T10:14:21;1.23;;;0.30;;
37201;SDS011;37799;52.390;6.136;2023-02-28T10:16:49;1.17;;;0.20;;
37201;SDS011;37799;52.390;6.136;2023-02-28T10:19:22;1.35;;;0.38;;
37201;SDS011;37799;52.390;6.136;2023-02-28T10:21:59;1.02;;;0.20;;
37201;SDS011;37799;52.390;6.136;2023-02-28T10:24:30;1.85;;;0.20;;
37201;SDS011;37799;52.390;6.136;2023-02-28T10:27:00;0.85;;;0.20;;
37201;SDS011;37799;52.390;6.136;2023-02-28T10:29:36;3.50;;;0.55;;
37201;SDS011;37799;52.390;6.136;2023-02-28T10:32:02;0.52;;;0.20;;
37201;SDS011;37799;52.390;6.136;2023-02-28T10:34:28;2.88;;;0.28;;
37201;SDS011;37799;52.390;6.136;2023-02-28T10:36:54;1.08;;;0.25;;
37201;SDS011;37799;52.390;6.136;2023-02-28T10:42:18;1.75;;;0.20;;
37201;SDS011;37799;52.390;6.136;2023-02-28T10:44:55;1.45;;;0.20;;
37201;SDS011;37799;52.390;6.136;2023-02-28T10:47:30;1.70;;;0.15;;
37201;SDS011;37799;52.390;6.136;2023-02-28T10:49:58;1.98;;;0.32;;
37201;SDS011;37799;52.390;6.136;2023-02-28T10:52:38;1.35;;;0.10;;
37201;SDS011;37799;52.390;6.136;2023-02-28T10:55:25;0.82;;;0.20;;
37201;SDS011;37799;52.390;6.136;2023-02-28T10:57:51;2.28;;;0.30;;
37201;SDS011;37799;52.390;6.136;2023-02-28T11:02:00;1.35;;;0.17;;
37201;SDS011;37799;52.390;6.136;2023-02-28T11:06:58;1.45;;;0.40;;
37201;SDS011;37799;52.390;6.136;2023-02-28T11:11:54;1.00;;;0.30;;
37201;SDS011;37799;52.390;6.136;2023-02-28T11:14:30;2.05;;;0.20;;
37201;SDS011;37799;52.390;6.136;2023-02-28T11:17:00;1.95;;;0.30;;
37201;SDS011;37799;52.390;6.136;2023-02-28T11:19:43;3.15;;;0.50;;
37201;SDS011;37799;52.390;6.136;2023-02-28T11:22:11;2.15;;;0.20;;
37201;SDS011;37799;52.390;6.136;2023-02-28T11:24:44;2.33;;;0.30;;
37201;SDS011;37799;52.390;6.136;2023-02-28T11:29:58;1.75;;;0.30;;
37201;SDS011;37799;52.390;6.136;2023-02-28T11:32:25;1.33;;;0.30;;
37201;SDS011;37799;52.390;6.136;2023-02-28T11:35:28;1.33;;;0.30;;
37201;SDS011;37799;52.390;6.136;2023-02-28T11:37:53;1.80;;;0.28;;
37201;SDS011;37799;52.390;6.136;2023-02-28T11:40:21;0.98;;;0.20;;
37201;SDS011;37799;52.390;6.136;2023-02-28T11:42:55;1.48;;;0.30;;
37201;SDS011;37799;52.390;6.136;2023-02-28T11:48:30;1.27;;;0.22;;
37201;SDS011;37799;52.390;6.136;2023-02-28T11:56:55;3.67;;;0.40;;
37201;SDS011;37799;52.390;6.136;2023-02-28T12:02:29;1.08;;;0.20;;
37201;SDS011;37799;52.390;6.136;2023-02-28T12:05:20;2.15;;;0.30;;
37201;SDS011;37799;52.390;6.136;2023-02-28T12:08:15;1.63;;;0.22;;
37201;SDS011;37799;52.390;6.136;2023-02-28T12:13:44;1.20;;;0.20;;
37201;SDS011;37799;52.390;6.136;2023-02-28T12:16:23;1.30;;;0.20;;
37201;SDS011;37799;52.390;6.136;2023-02-28T12:19:20;0.98;;;0.20;;
37201;SDS011;37799;52.390;6.136;2023-02-28T12:21:59;1.00;;;0.20;;
37201;SDS011;37799;52.390;6.136;2023-02-28T12:24:46;1.00;;;0.20;;
37201;SDS011;37799;52.390;6.136;2023-02-28T12:27:45;2.80;;;0.22;;
37201;SDS011;37799;52.390;6.136;2023-02-28T12:30:25;3.05;;;0.40;;
37201;SDS011;37799;52.390;6.136;2023-02-28T12:33:12;0.85;;;0.17;;
37201;SDS011;37799;52.390;6.136;2023-02-28T12:35:48;0.90;;;0.25;;
37201;SDS011;37799;52.390;6.136;2023-02-28T12:41:02;1.38;;;0.25;;
37201;SDS011;37799;52.390;6.136;2023-02-28T12:43:36;0.65;;;0.13;;
37201;SDS011;37799;52.390;6.136;2023-02-28T12:46:10;1.15;;;0.28;;
37201;SDS011;37799;52.390;6.136;2023-02-28T12:49:13;0.32;;;0.10;;
37201;SDS011;37799;52.390;6.136;2023-02-28T12:51:34;3.88;;;0.22;;
37201;SDS011;37799;52.390;6.136;2023-02-28T12:56:42;0.90;;;0.20;;
37201;SDS011;37799;52.390;6.136;2023-02-28T13:02:00;1.63;;;0.30;;
37201;SDS011;37799;52.390;6.136;2023-02-28T13:04:55;1.00;;;0.28;;
37201;SDS011;37799;52.390;6.136;2023-02-28T13:07:49;0.73;;;0.20;;
37201;SDS011;37799;52.390;6.136;2023-02-28T13:10:20;2.17;;;0.40;;
37201;SDS011;37799;52.390;6.136;2023-02-28T13:12:49;1.77;;;0.20;;
37201;SDS011;37799;52.390;6.136;2023-02-28T13:17:41;2.60;;;0.40;;
37201;SDS011;37799;52.390;6.136;2023-02-28T13:20:20;1.58;;;0.47;;
37201;SDS011;37799;52.390;6.136;2023-02-28T13:27:58;3.25;;;0.50;;
37201;SDS011;37799;52.390;6.136;2023-02-28T13:33:22;0.80;;;0.10;;
37201;SDS011;37799;52.390;6.136;2023-02-28T13:38:37;0.65;;;0.20;;
37201;SDS011;37799;52.390;6.136;2023-02-28T13:44:02;1.88;;;0.35;;
37201;SDS011;37799;52.390;6.136;2023-02-28T13:46:28;2.05;;;0.38;;
37201;SDS011;37799;52.390;6.136;2023-02-28T13:48:53;1.40;;;0.20;;
37201;SDS011;37799;52.390;6.136;2023-02-28T13:51:38;1.40;;;0.32;;
37201;SDS011;37799;52.390;6.136;2023-02-28T13:59:42;0.57;;;0.20;;
37201;SDS011;37799;52.390;6.136;2023-02-28T14:05:13;2.70;;;0.43;;
37201;SDS011;37799;52.390;6.136;2023-02-28T14:07:50;1.95;;;0.32;;
37201;SDS011;37799;52.390;6.136;2023-02-28T14:13:02;2.47;;;0.55;;
37201;SDS011;37799;52.390;6.136;2023-02-28T14:20:49;1.70;;;0.35;;
37201;SDS011;37799;52.390;6.136;2023-02-28T14:28:50;1.88;;;0.50;;
37201;SDS011;37799;52.390;6.136;2023-02-28T14:31:29;1.98;;;0.40;;
37201;SDS011;37799;52.390;6.136;2023-02-28T14:34:13;2.38;;;0.30;;
37201;SDS011;37799;52.390;6.136;2023-02-28T14:39:19;1.27;;;0.38;;
37201;SDS011;37799;52.390;6.136;2023-02-28T14:41:47;2.15;;;0.47;;
37201;SDS011;37799;52.390;6.136;2023-02-28T14:44:14;2.90;;;0.40;;
37201;SDS011;37799;52.390;6.136;2023-02-28T14:46:41;1.48;;;0.30;;
37201;SDS011;37799;52.390;6.136;2023-02-28T14:49:26;0.85;;;0.22;;
37201;SDS011;37799;52.390;6.136;2023-02-28T14:54:40;1.23;;;0.30;;
37201;SDS011;37799;52.390;6.136;2023-02-28T14:57:06;1.20;;;0.38;;
37201;SDS011;37799;52.390;6.136;2023-02-28T14:59:45;1.25;;;0.55;;
37201;SDS011;37799;52.390;6.136;2023-02-28T15:02:14;1.33;;;0.20;;
37201;SDS011;37799;52.390;6.136;2023-02-28T15:04:42;2.13;;;0.40;;
37201;SDS011;37799;52.390;6.136;2023-02-28T15:07:09;2.20;;;0.47;;
37201;SDS011;37799;52.390;6.136;2023-02-28T15:09:37;1.92;;;0.50;;
37201;SDS011;37799;52.390;6.136;2023-02-28T15:12:03;3.42;;;0.40;;
37201;SDS011;37799;52.390;6.136;2023-02-28T15:14:28;1.67;;;0.30;;
37201;SDS011;37799;52.390;6.136;2023-02-28T15:16:58;1.38;;;0.28;;
37201;SDS011;37799;52.390;6.136;2023-02-28T15:19:33;1.08;;;0.10;;
37201;SDS011;37799;52.390;6.136;2023-02-28T15:22:02;1.98;;;0.30;;
37201;SDS011;37799;52.390;6.136;2023-02-28T15:26:59;1.58;;;0.32;;
37201;SDS011;37799;52.390;6.136;2023-02-28T15:29:29;1.67;;;0.40;;
37201;SDS011;37799;52.390;6.136;2023-02-28T15:32:03;2.25;;;0.32;;
37201;SDS011;37799;52.390;6.136;2023-02-28T15:34:35;4.78;;;1.20;;
37201;SDS011;37799;52.390;6.136;2023-02-28T15:37:06;7.63;;;1.92;;
37201;SDS011;37799;52.390;6.136;2023-02-28T15:39:51;16.98;;;5.57;;
37201;SDS011;37799;52.390;6.136;2023-02-28T15:42:18;6.38;;;1.55;;
37201;SDS011;37799;52.390;6.136;2023-02-28T15:44:45;2.67;;;0.43;;
37201;SDS011;37799;52.390;6.136;2023-02-28T15:47:16;2.00;;;0.32;;
37201;SDS011;37799;52.390;6.136;2023-02-28T15:49:45;1.35;;;0.20;;
37201;SDS011;37799;52.390;6.136;2023-02-28T15:52:15;1.88;;;0.38;;
37201;SDS011;37799;52.390;6.136;2023-02-28T15:54:44;1.80;;;0.30;;
37201;SDS011;37799;52.390;6.136;2023-02-28T15:57:13;1.42;;;0.10;;
37201;SDS011;37799;52.390;6.136;2023-02-28T15:59:51;0.80;;;0.20;;
37201;SDS011;37799;52.390;6.136;2023-02-28T16:02:21;2.58;;;0.20;;
37201;SDS011;37799;52.390;6.136;2023-02-28T16:04:58;1.42;;;0.30;;
37201;SDS011;37799;52.390;6.136;2023-02-28T16:07:38;1.13;;;0.20;;
37201;SDS011;37799;52.390;6.136;2023-02-28T16:10:05;3.33;;;0.80;;
37201;SDS011;37799;52.390;6.136;2023-02-28T16:12:32;1.42;;;0.30;;
37201;SDS011;37799;52.390;6.136;2023-02-28T16:17:38;1.40;;;0.30;;
37201;SDS011;37799;52.390;6.136;2023-02-28T16:22:43;64.07;;;14.10;;
37201;SDS011;37799;52.390;6.136;2023-02-28T16:25:12;13.45;;;4.50;;
37201;SDS011;37799;52.390;6.136;2023-02-28T16:27:39;4.97;;;1.40;;
37201;SDS011;37799;52.390;6.136;2023-02-28T16:30:05;42.15;;;9.48;;
37201;SDS011;37799;52.390;6.136;2023-02-28T16:32:35;28.85;;;9.40;;
37201;SDS011;37799;52.390;6.136;2023-02-28T16:35:01;15.27;;;4.53;;
37201;SDS011;37799;52.390;6.136;2023-02-28T16:37:27;15.73;;;4.38;;
37201;SDS011;37799;52.390;6.136;2023-02-28T16:39:53;38.85;;;11.60;;
37201;SDS011;37799;52.390;6.136;2023-02-28T16:42:23;41.40;;;14.95;;
37201;SDS011;37799;52.390;6.136;2023-02-28T16:44:51;18.02;;;6.72;;
37201;SDS011;37799;52.390;6.136;2023-02-28T16:47:18;12.60;;;4.80;;
37201;SDS011;37799;52.390;6.136;2023-02-28T16:49:43;7.75;;;2.53;;
37201;SDS011;37799;52.390;6.136;2023-02-28T16:52:11;5.63;;;1.55;;
37201;SDS011;37799;52.390;6.136;2023-02-28T16:54:37;15.35;;;7.05;;
37201;SDS011;37799;52.390;6.136;2023-02-28T16:57:04;7.65;;;2.50;;
37201;SDS011;37799;52.390;6.136;2023-02-28T16:59:31;6.22;;;2.58;;
37201;SDS011;37799;52.390;6.136;2023-02-28T17:01:57;4.05;;;1.33;;
37201;SDS011;37799;52.390;6.136;2023-02-28T17:04:24;2.83;;;0.73;;
37201;SDS011;37799;52.390;6.136;2023-02-28T17:06:50;3.08;;;0.43;;